Weather at Cardiff International Airport

Public forecast

Using degrees Celsius for public forecast. Weather courtesy of forecast.io.

Current aviation weather report (METAR) for Cardiff International Airport

Retrieved 2021/03/03 22:20 UTC (1 hour ago):

EGFF 032220Z AUTO 35004KT 2100 BR FEW007 BKN022 OVC028 07/07 Q1024

Aviation forecast (TAF) for Cardiff International Airport

Forecast is more than 6 hours old.

Retrieved 2021/03/03 12:00 UTC (11 hours ago):

TAF EGFF 031058Z 0312/0412 07008KT 2000 BR BKN003 TEMPO 0312/0321 6000 SHRA SCT006 BKN018 PROB30 TEMPO 0312/0320 +SHRA TEMPO 0321/0409 1200 PROB40 0409/0412 6000 NSW BKN010